createdAt,value
2019-02-28T00:00:58.261Z,0.00
2019-02-28T00:01:58.426Z,0.00
2019-02-28T00:02:58.598Z,0.00
2019-02-28T00:03:59.131Z,0.00
2019-02-28T00:04:58.941Z,0.00
2019-02-28T00:05:59.113Z,0.00
2019-02-28T00:06:59.300Z,0.00
2019-02-28T00:07:59.459Z,0.00
2019-02-28T00:08:59.627Z,0.00
2019-02-28T00:09:59.801Z,0.00
2019-02-28T00:11:01.977Z,0.00
2019-02-28T00:12:00.153Z,0.00
2019-02-28T00:13:00.318Z,0.00
2019-02-28T00:14:00.482Z,0.00
2019-02-28T00:15:00.656Z,0.00
2019-02-28T00:16:03.276Z,0.00
2019-02-28T00:17:00.999Z,0.00
2019-02-28T00:18:01.171Z,0.00
2019-02-28T00:19:01.344Z,0.00
2019-02-28T00:20:01.517Z,0.00
2019-02-28T00:21:05.783Z,0.00
2019-02-28T00:22:01.865Z,0.00
2019-02-28T00:23:02.026Z,0.00
2019-02-28T00:24:02.202Z,0.00
2019-02-28T00:25:04.313Z,0.00
2019-02-28T00:26:02.545Z,0.00
2019-02-28T00:27:02.724Z,0.00
2019-02-28T00:28:02.907Z,0.00
2019-02-28T00:29:03.064Z,0.00
2019-02-28T00:30:05.975Z,0.00
2019-02-28T00:31:03.412Z,0.00
2019-02-28T00:32:03.601Z,0.00
2019-02-28T00:33:03.750Z,0.00
2019-02-28T00:34:05.477Z,0.00
2019-02-28T00:35:04.091Z,0.00
2019-02-28T00:36:04.275Z,0.00
2019-02-28T00:37:04.436Z,0.00
2019-02-28T00:38:04.614Z,0.00
2019-02-28T00:39:04.783Z,0.00
2019-02-28T00:40:06.643Z,0.00
2019-02-28T00:41:05.129Z,0.00
2019-02-28T00:42:05.296Z,0.00
2019-02-28T00:43:05.471Z,0.00
2019-02-28T00:44:05.642Z,0.00
2019-02-28T00:45:05.812Z,0.00
2019-02-28T00:46:07.294Z,0.00
2019-02-28T00:47:06.150Z,0.00
2019-02-28T00:48:06.324Z,0.00
2019-02-28T00:49:06.495Z,0.00
2019-02-28T00:50:06.671Z,0.00
2019-02-28T00:51:06.833Z,0.00
2019-02-28T00:52:07.008Z,0.00
2019-02-28T00:53:07.392Z,0.00
2019-02-28T00:54:08.650Z,0.00
2019-02-28T00:55:07.524Z,0.00
2019-02-28T00:56:07.727Z,0.00
2019-02-28T00:57:07.865Z,0.00
2019-02-28T00:58:08.032Z,0.00
2019-02-28T00:59:08.204Z,0.00
2019-02-28T01:00:08.375Z,0.00
2019-02-28T01:01:11.591Z,0.00
2019-02-28T01:02:08.719Z,0.00
2019-02-28T01:03:08.900Z,0.00
2019-02-28T01:04:09.063Z,0.00
2019-02-28T01:05:09.233Z,0.00
2019-02-28T01:07:09.575Z,0.00
2019-02-28T01:08:09.744Z,0.00
2019-02-28T01:10:10.080Z,0.00
2019-02-28T01:11:12.879Z,0.00
2019-02-28T01:12:10.426Z,0.00
2019-02-28T01:13:10.595Z,0.00
2019-02-28T01:14:10.769Z,0.00
2019-02-28T01:15:10.937Z,0.00
2019-02-28T01:16:11.111Z,0.00
2019-02-28T01:17:11.281Z,0.00
2019-02-28T01:18:11.453Z,0.00
2019-02-28T01:19:11.633Z,0.00
2019-02-28T01:20:14.910Z,0.00
2019-02-28T01:21:11.968Z,0.00
2019-02-28T01:22:12.135Z,0.00
2019-02-28T01:23:12.307Z,0.00
2019-02-28T01:24:12.494Z,0.00
2019-02-28T01:25:12.646Z,0.00
2019-02-28T01:26:12.824Z,0.00
2019-02-28T01:27:12.994Z,0.00
2019-02-28T01:28:13.165Z,0.00
2019-02-28T01:29:13.339Z,0.00
2019-02-28T01:30:13.512Z,0.00
2019-02-28T01:31:13.674Z,0.00
2019-02-28T01:32:15.793Z,0.00
2019-02-28T01:33:14.028Z,0.00
2019-02-28T01:34:14.191Z,0.00
2019-02-28T01:35:14.369Z,0.00
2019-02-28T01:36:15.519Z,0.00
2019-02-28T01:37:14.703Z,0.00
2019-02-28T01:38:14.866Z,0.00
2019-02-28T01:39:15.044Z,0.00
2019-02-28T01:40:15.216Z,0.00
2019-02-28T01:41:15.372Z,0.00
2019-02-28T01:42:16.255Z,0.00
2019-02-28T01:43:15.719Z,0.00
2019-02-28T01:44:15.885Z,0.00
2019-02-28T01:45:16.066Z,0.00
2019-02-28T01:46:17.277Z,0.00
2019-02-28T01:47:19.950Z,0.00
2019-02-28T01:48:16.564Z,0.00
2019-02-28T01:49:16.754Z,0.00
2019-02-28T01:50:16.922Z,0.00
2019-02-28T01:51:17.087Z,0.00
2019-02-28T01:52:17.266Z,0.00
2019-02-28T01:53:19.549Z,0.00
2019-02-28T01:54:17.615Z,0.00
2019-02-28T01:55:17.772Z,0.00
2019-02-28T01:56:17.943Z,0.00
2019-02-28T01:57:18.115Z,0.00
2019-02-28T01:58:18.292Z,0.00
2019-02-28T01:59:21.596Z,0.00
2019-02-28T02:00:18.630Z,0.00
2019-02-28T02:01:18.804Z,0.00
2019-02-28T02:02:18.972Z,0.00
2019-02-28T02:03:19.144Z,0.00
2019-02-28T02:04:19.314Z,0.00
2019-02-28T02:05:19.491Z,0.00
2019-02-28T02:06:22.475Z,0.00
2019-02-28T02:07:19.834Z,0.00
2019-02-28T02:08:20.001Z,0.00
2019-02-28T02:09:20.169Z,0.00
2019-02-28T02:10:21.446Z,0.00
2019-02-28T02:11:20.519Z,0.00
2019-02-28T02:12:20.700Z,0.00
2019-02-28T02:13:20.855Z,0.00
2019-02-28T02:14:21.029Z,0.00
2019-02-28T02:15:21.203Z,0.00
2019-02-28T02:16:26.837Z,0.00
2019-02-28T02:17:21.553Z,0.00
2019-02-28T02:18:21.714Z,0.00
2019-02-28T02:19:21.885Z,0.00
2019-02-28T02:20:23.493Z,0.00
2019-02-28T02:21:22.231Z,0.00
2019-02-28T02:22:22.399Z,0.00
2019-02-28T02:23:22.571Z,0.00
2019-02-28T02:24:24.315Z,0.00
2019-02-28T02:25:22.913Z,0.00
2019-02-28T02:26:23.085Z,0.00
2019-02-28T02:27:23.259Z,0.00
2019-02-28T02:28:26.737Z,0.00
2019-02-28T02:29:23.608Z,0.00
2019-02-28T02:30:23.777Z,0.00
2019-02-28T02:31:28.701Z,0.00
2019-02-28T02:32:24.124Z,0.00
2019-02-28T02:33:24.303Z,0.00
2019-02-28T02:34:28.126Z,0.00
2019-02-28T02:35:24.670Z,0.00
2019-02-28T02:36:24.813Z,0.00
2019-02-28T02:37:26.424Z,0.00
2019-02-28T02:38:25.160Z,0.00
2019-02-28T02:39:25.335Z,0.00
2019-02-28T02:40:25.500Z,0.00
2019-02-28T02:41:25.663Z,0.00
2019-02-28T02:42:25.833Z,0.00
2019-02-28T02:43:26.000Z,0.00
2019-02-28T02:44:30.490Z,0.00
2019-02-28T02:45:26.340Z,0.00
2019-02-28T02:46:26.549Z,0.00
2019-02-28T02:47:31.086Z,0.00
2019-02-28T02:48:26.863Z,0.00
2019-02-28T02:49:27.036Z,0.00
2019-02-28T02:50:34.011Z,0.00
2019-02-28T02:51:27.379Z,0.00
2019-02-28T02:52:30.410Z,0.00
2019-02-28T02:53:27.706Z,0.00
2019-02-28T02:54:27.887Z,0.00
2019-02-28T02:55:29.222Z,0.00
2019-02-28T02:56:28.230Z,0.00
2019-02-28T02:57:28.383Z,0.00
2019-02-28T02:58:28.560Z,0.00
2019-02-28T02:59:28.728Z,0.00
2019-02-28T03:00:28.935Z,0.00
2019-02-28T03:01:29.080Z,0.00
2019-02-28T03:02:33.269Z,0.00
2019-02-28T03:03:29.410Z,0.00
2019-02-28T03:04:29.575Z,0.00
2019-02-28T03:05:35.332Z,0.00
2019-02-28T03:06:29.928Z,0.00
2019-02-28T03:07:30.094Z,0.00
2019-02-28T03:08:35.680Z,0.00
2019-02-28T03:09:30.447Z,0.00
2019-02-28T03:10:30.609Z,0.00
2019-02-28T03:11:30.774Z,0.00
2019-02-28T03:12:31.437Z,0.00
2019-02-28T03:13:31.113Z,0.00
2019-02-28T03:14:31.283Z,0.00
2019-02-28T03:15:31.456Z,0.00
2019-02-28T03:16:33.023Z,0.00
2019-02-28T03:17:31.799Z,0.00
2019-02-28T03:18:31.974Z,0.00
2019-02-28T03:19:33.703Z,0.00
2019-02-28T03:20:32.305Z,0.00
2019-02-28T03:21:32.485Z,0.00
2019-02-28T03:22:32.652Z,0.00
2019-02-28T03:23:37.848Z,0.00
2019-02-28T03:24:33.011Z,0.00
2019-02-28T03:25:33.168Z,0.00
2019-02-28T03:26:33.340Z,0.00
2019-02-28T03:27:33.515Z,0.00
2019-02-28T03:28:33.703Z,0.00
2019-02-28T03:29:33.851Z,0.00
2019-02-28T03:30:34.106Z,0.00
2019-02-28T03:31:34.193Z,0.00
2019-02-28T03:32:41.979Z,0.00
2019-02-28T03:33:34.553Z,0.00
2019-02-28T03:34:34.705Z,0.00
2019-02-28T03:35:43.337Z,0.00
2019-02-28T03:36:35.043Z,0.00
2019-02-28T03:37:35.231Z,0.00
2019-02-28T03:38:35.393Z,0.00
2019-02-28T03:39:35.561Z,0.00
2019-02-28T03:40:39.764Z,0.00
2019-02-28T03:41:35.905Z,0.00
2019-02-28T03:42:36.079Z,0.00
2019-02-28T03:43:42.670Z,0.00
2019-02-28T03:44:36.431Z,0.00
2019-02-28T03:45:36.605Z,0.00
2019-02-28T03:46:36.755Z,0.00
2019-02-28T03:47:36.924Z,0.00
2019-02-28T03:48:37.098Z,0.00
2019-02-28T03:49:37.281Z,0.00
2019-02-28T03:50:37.439Z,0.00
2019-02-28T03:51:37.610Z,0.00
2019-02-28T03:52:42.115Z,0.00
2019-02-28T03:53:37.952Z,0.00
2019-02-28T03:54:38.110Z,0.00
2019-02-28T03:55:40.846Z,0.00
2019-02-28T03:56:38.467Z,0.00
2019-02-28T03:57:38.635Z,0.00
2019-02-28T03:58:42.913Z,0.00
2019-02-28T03:59:38.966Z,0.00
2019-02-28T04:00:39.131Z,0.00
2019-02-28T04:01:45.071Z,0.00
2019-02-28T04:02:39.525Z,0.00
2019-02-28T04:03:39.644Z,0.00
2019-02-28T04:04:39.809Z,0.00
2019-02-28T04:05:39.983Z,0.00
2019-02-28T04:06:41.050Z,0.00
2019-02-28T04:07:40.325Z,0.00
2019-02-28T04:08:40.526Z,0.00
2019-02-28T04:09:44.164Z,0.00
2019-02-28T04:10:40.835Z,0.00
2019-02-28T04:11:41.005Z,0.00
2019-02-28T04:12:45.648Z,0.00
2019-02-28T04:13:41.349Z,0.00
2019-02-28T04:14:41.511Z,0.00
2019-02-28T04:15:50.760Z,0.00
2019-02-28T04:16:41.856Z,0.00
2019-02-28T04:17:42.026Z,0.00
2019-02-28T04:18:46.188Z,0.00
2019-02-28T04:19:42.368Z,0.00
2019-02-28T04:20:42.543Z,0.00
2019-02-28T04:21:46.219Z,0.00
2019-02-28T04:22:42.885Z,0.00
2019-02-28T04:23:43.053Z,0.00
2019-02-28T04:24:46.389Z,0.00
2019-02-28T04:25:43.394Z,0.00
2019-02-28T04:26:43.565Z,0.00
2019-02-28T04:27:43.738Z,0.00
2019-02-28T04:28:43.906Z,0.00
2019-02-28T04:29:44.072Z,0.00
2019-02-28T04:30:44.248Z,0.00
2019-02-28T04:31:44.415Z,0.00
2019-02-28T04:32:44.586Z,0.00
2019-02-28T04:33:44.761Z,0.00
2019-02-28T04:34:45.762Z,0.00
2019-02-28T04:35:45.093Z,0.00
2019-02-28T04:36:45.260Z,0.00
2019-02-28T04:37:47.184Z,0.00
2019-02-28T04:38:45.594Z,0.00
2019-02-28T04:39:45.762Z,0.00
2019-02-28T04:40:45.932Z,0.00
2019-02-28T04:41:46.100Z,0.00
2019-02-28T04:42:46.280Z,0.00
2019-02-28T04:43:46.448Z,0.00
2019-02-28T04:44:49.180Z,0.00
2019-02-28T04:45:46.787Z,0.00
2019-02-28T04:46:46.961Z,0.00
2019-02-28T04:47:47.149Z,0.00
2019-02-28T04:48:48.435Z,0.00
2019-02-28T04:49:47.465Z,0.00
2019-02-28T04:50:47.644Z,0.00
2019-02-28T04:51:47.805Z,0.00
2019-02-28T04:52:48.312Z,0.00
2019-02-28T04:53:52.653Z,0.00
2019-02-28T04:54:48.315Z,0.00
2019-02-28T04:55:48.481Z,0.00
2019-02-28T04:56:48.646Z,0.00
2019-02-28T04:57:51.639Z,0.00
2019-02-28T04:58:48.988Z,0.00
2019-02-28T04:59:49.149Z,0.00
2019-02-28T05:00:49.315Z,0.00
2019-02-28T05:01:49.495Z,0.00
2019-02-28T05:02:53.778Z,0.00
2019-02-28T05:03:49.825Z,0.00
2019-02-28T05:04:49.996Z,0.00
2019-02-28T05:05:50.162Z,0.00
2019-02-28T05:06:52.126Z,0.00
2019-02-28T05:07:50.512Z,0.00
2019-02-28T05:08:50.702Z,0.00
2019-02-28T05:09:50.858Z,0.00
2019-02-28T05:10:55.570Z,0.00
2019-02-28T05:11:51.196Z,0.00
2019-02-28T05:12:51.368Z,0.00
2019-02-28T05:13:51.536Z,0.00
2019-02-28T05:14:51.701Z,0.00
2019-02-28T05:15:51.872Z,0.00
2019-02-28T05:16:52.043Z,0.00
2019-02-28T05:17:53.162Z,0.00
2019-02-28T05:18:52.385Z,0.00
2019-02-28T05:19:52.554Z,0.00
2019-02-28T05:20:52.725Z,0.00
2019-02-28T05:21:53.416Z,0.00
2019-02-28T05:22:53.070Z,0.00
2019-02-28T05:23:53.236Z,0.00
2019-02-28T05:24:53.407Z,0.00
2019-02-28T05:25:53.574Z,0.00
2019-02-28T05:26:53.746Z,0.00
2019-02-28T05:27:53.927Z,0.00
2019-02-28T05:28:54.087Z,0.00
2019-02-28T05:29:54.256Z,0.00
2019-02-28T05:30:54.431Z,0.00
2019-02-28T05:31:54.599Z,4.00
2019-02-28T05:32:54.772Z,4.00
2019-02-28T05:33:54.943Z,0.00
2019-02-28T05:34:55.110Z,4.00
2019-02-28T05:35:57.145Z,0.00
2019-02-28T05:36:55.456Z,4.00
2019-02-28T05:37:55.616Z,4.00
2019-02-28T05:38:56.577Z,4.00
2019-02-28T05:39:55.969Z,8.00
2019-02-28T05:40:56.136Z,8.00
2019-02-28T05:41:56.307Z,8.00
2019-02-28T05:42:58.424Z,12.00
2019-02-28T05:43:56.648Z,12.00
2019-02-28T05:44:56.820Z,16.00
2019-02-28T05:45:56.995Z,16.00
2019-02-28T05:46:58.133Z,20.00
2019-02-28T05:47:57.344Z,24.00
2019-02-28T05:48:57.503Z,28.00
2019-02-28T05:49:57.676Z,32.00
2019-02-28T05:50:57.843Z,40.00
2019-02-28T05:51:59.047Z,48.00
2019-02-28T05:52:58.190Z,52.00
2019-02-28T05:53:58.359Z,64.00
2019-02-28T05:54:58.530Z,72.00
2019-02-28T05:55:59.857Z,80.00
2019-02-28T05:56:58.872Z,92.00
2019-02-28T05:57:59.059Z,104.00
2019-02-28T05:58:59.217Z,116.00
2019-02-28T06:00:01.947Z,128.00
2019-02-28T06:00:59.555Z,144.00
2019-02-28T06:01:59.727Z,160.00
2019-02-28T06:02:59.895Z,180.00
2019-02-28T06:04:02.920Z,196.00
2019-02-28T06:05:00.277Z,216.00
2019-02-28T06:06:00.418Z,236.00
2019-02-28T06:07:00.573Z,260.00
2019-02-28T06:08:03.577Z,284.00
2019-02-28T06:09:00.914Z,304.00
2019-02-28T06:10:01.083Z,328.00
2019-02-28T06:11:01.529Z,360.00
2019-02-28T06:12:01.420Z,388.00
2019-02-28T06:13:01.589Z,420.00
2019-02-28T06:14:01.768Z,456.00
2019-02-28T06:15:03.538Z,492.00
2019-02-28T06:16:02.102Z,528.00
2019-02-28T06:17:02.279Z,568.00
2019-02-28T06:18:02.437Z,608.00
2019-02-28T06:19:07.835Z,656.00
2019-02-28T06:20:02.780Z,700.00
2019-02-28T06:21:02.949Z,756.00
2019-02-28T06:22:03.121Z,812.00
2019-02-28T06:23:03.291Z,872.00
2019-02-28T06:24:03.478Z,928.00
2019-02-28T06:25:03.642Z,996.00
2019-02-28T06:26:03.803Z,1060.00
2019-02-28T06:27:06.775Z,1136.00
2019-02-28T06:28:04.141Z,1208.00
2019-02-28T06:29:04.983Z,1268.00
2019-02-28T06:30:04.476Z,1348.00
2019-02-28T06:31:04.654Z,1420.00
2019-02-28T06:32:04.824Z,1500.00
2019-02-28T06:33:05.000Z,1580.00
2019-02-28T06:34:05.712Z,1644.00
2019-02-28T06:35:05.335Z,1740.00
2019-02-28T06:36:05.518Z,1824.00
2019-02-28T06:37:05.689Z,1908.00
2019-02-28T06:38:06.839Z,1996.00
2019-02-28T06:39:06.042Z,2100.00
2019-02-28T06:40:06.206Z,2196.00
2019-02-28T06:41:07.642Z,2284.00
2019-02-28T06:42:06.543Z,2364.00
2019-02-28T06:43:06.714Z,2444.00
2019-02-28T06:44:06.885Z,2556.00
2019-02-28T06:45:07.053Z,2660.00
2019-02-28T06:46:08.561Z,3280.00
2019-02-28T06:47:07.397Z,4592.00
2019-02-28T06:48:07.574Z,5004.00
2019-02-28T06:49:07.751Z,4856.00
2019-02-28T06:50:07.914Z,4968.00
2019-02-28T06:51:08.108Z,5268.00
2019-02-28T06:52:08.262Z,5516.00
2019-02-28T06:53:08.435Z,5696.00
2019-02-28T06:54:08.791Z,5876.00
2019-02-28T06:55:08.777Z,6420.00
2019-02-28T06:56:08.957Z,6976.00
2019-02-28T06:57:09.122Z,7216.00
2019-02-28T06:58:09.307Z,7160.00
2019-02-28T06:59:09.469Z,7404.00
2019-02-28T07:00:10.390Z,7656.00
2019-02-28T07:01:11.241Z,8052.00
2019-02-28T07:02:09.938Z,8356.00
2019-02-28T07:03:10.109Z,8408.00
2019-02-28T07:04:11.530Z,8508.00
2019-02-28T07:05:10.487Z,8632.00
2019-02-28T07:06:10.743Z,8912.00
2019-02-28T07:07:13.595Z,9360.00
2019-02-28T07:08:10.953Z,9916.00
2019-02-28T07:09:11.125Z,10196.00
2019-02-28T07:10:12.650Z,10404.00
2019-02-28T07:11:11.467Z,10356.00
2019-02-28T07:12:13.227Z,9992.00
2019-02-28T07:13:11.981Z,9972.00
2019-02-28T07:14:13.757Z,10292.00
2019-02-28T07:15:12.154Z,10972.00
2019-02-28T07:16:12.337Z,11416.00
2019-02-28T07:17:12.509Z,11620.00
2019-02-28T07:18:12.682Z,10804.00
2019-02-28T07:19:12.855Z,10784.00
2019-02-28T07:20:13.033Z,11368.00
2019-02-28T07:21:13.200Z,9648.00
2019-02-28T07:22:19.258Z,10264.00
2019-02-28T07:23:13.545Z,10844.00
2019-02-28T07:24:13.721Z,12384.00
2019-02-28T07:25:14.006Z,12480.00
2019-02-28T07:26:14.090Z,10944.00
2019-02-28T07:27:14.243Z,11744.00
2019-02-28T07:28:14.425Z,13472.00
2019-02-28T07:29:14.591Z,13536.00
2019-02-28T07:30:18.576Z,12736.00
2019-02-28T07:31:14.951Z,12608.00
2019-02-28T07:32:15.120Z,10700.00
2019-02-28T07:33:15.296Z,8680.00
2019-02-28T07:34:19.345Z,7508.00
2019-02-28T07:35:15.640Z,7472.00
2019-02-28T07:36:15.814Z,7448.00
2019-02-28T07:37:18.720Z,7448.00
2019-02-28T07:38:16.158Z,7476.00
2019-02-28T07:39:16.334Z,7484.00
2019-02-28T07:40:17.406Z,7556.00
2019-02-28T07:41:16.680Z,8088.00
2019-02-28T07:42:16.875Z,7776.00
2019-02-28T07:43:17.035Z,7620.00
2019-02-28T07:44:21.054Z,7396.00
2019-02-28T07:45:17.392Z,7168.00
2019-02-28T07:46:17.564Z,7496.00
2019-02-28T07:47:18.442Z,7864.00
2019-02-28T07:48:17.912Z,7908.00
2019-02-28T07:49:18.085Z,7920.00
2019-02-28T07:50:18.255Z,7924.00
2019-02-28T07:51:22.002Z,7928.00
2019-02-28T07:52:20.359Z,7944.00
2019-02-28T07:53:18.787Z,7956.00
2019-02-28T07:54:20.524Z,7988.00
2019-02-28T07:55:19.139Z,8156.00
2019-02-28T07:56:19.323Z,10980.00
2019-02-28T07:57:19.487Z,13456.00
2019-02-28T07:58:19.666Z,14944.00
2019-02-28T07:59:19.845Z,15200.00
2019-02-28T08:00:20.004Z,14784.00
2019-02-28T08:01:20.185Z,15072.00
2019-02-28T08:02:20.353Z,14720.00
2019-02-28T08:03:20.534Z,14624.00
2019-02-28T08:04:20.702Z,14528.00
2019-02-28T08:05:20.900Z,14496.00
2019-02-28T08:06:21.078Z,14304.00
2019-02-28T08:07:21.220Z,14144.00
2019-02-28T08:08:23.464Z,13520.00
2019-02-28T08:09:21.577Z,13560.00
2019-02-28T08:10:21.727Z,13660.00
2019-02-28T08:11:21.905Z,13668.00
2019-02-28T08:12:22.095Z,13372.00
2019-02-28T08:13:22.276Z,13244.00
2019-02-28T08:14:22.436Z,13136.00
2019-02-28T08:15:22.888Z,13088.00
2019-02-28T08:16:22.803Z,12496.00
2019-02-28T08:17:22.957Z,12736.00
2019-02-28T08:18:23.133Z,12492.00
2019-02-28T08:19:27.155Z,12268.00
2019-02-28T08:20:23.586Z,12096.00
2019-02-28T08:21:23.670Z,12064.00
2019-02-28T08:22:24.742Z,12020.00
2019-02-28T08:23:24.018Z,12176.00
2019-02-28T08:24:26.526Z,11996.00
2019-02-28T08:25:24.441Z,11292.00
2019-02-28T08:26:24.618Z,10652.00
2019-02-28T08:27:25.410Z,10772.00
2019-02-28T08:28:24.972Z,11328.00
2019-02-28T08:29:25.145Z,11304.00
2019-02-28T08:30:25.325Z,11488.00
2019-02-28T08:31:28.409Z,11400.00
2019-02-28T08:32:25.682Z,11364.00
2019-02-28T08:33:25.876Z,11152.00
2019-02-28T08:34:26.058Z,10980.00
2019-02-28T08:35:26.227Z,10800.00
2019-02-28T08:36:26.408Z,10632.00
2019-02-28T08:37:26.580Z,10232.00
2019-02-28T08:38:26.764Z,10320.00
2019-02-28T08:39:26.943Z,10228.00
2019-02-28T08:40:27.260Z,10256.00
2019-02-28T08:41:27.322Z,10108.00
2019-02-28T08:42:27.486Z,10184.00
2019-02-28T08:43:27.669Z,10156.00
2019-02-28T08:44:27.843Z,10112.00
2019-02-28T08:46:28.210Z,10080.00
2019-02-28T08:47:28.369Z,10020.00
2019-02-28T08:48:31.755Z,10072.00
2019-02-28T08:49:28.721Z,9868.00
2019-02-28T08:50:28.903Z,9920.00
2019-02-28T08:51:30.855Z,9880.00
2019-02-28T08:52:29.263Z,9992.00
2019-02-28T08:53:29.445Z,9868.00
2019-02-28T08:54:29.631Z,9852.00
2019-02-28T08:55:29.802Z,9804.00
2019-02-28T08:56:31.633Z,9840.00
2019-02-28T08:57:30.153Z,9784.00
2019-02-28T08:58:30.332Z,9824.00
2019-02-28T08:59:30.514Z,9680.00
2019-02-28T09:00:32.952Z,9704.00
2019-02-28T09:01:30.874Z,9688.00
2019-02-28T09:02:31.046Z,9680.00
2019-02-28T09:03:31.226Z,9644.00
2019-02-28T09:04:31.407Z,9752.00
2019-02-28T09:05:31.584Z,9768.00
2019-02-28T09:06:31.766Z,9796.00
2019-02-28T09:07:31.945Z,9792.00
2019-02-28T09:08:32.125Z,9668.00
2019-02-28T09:09:34.465Z,9776.00
2019-02-28T09:10:32.482Z,9768.00
2019-02-28T09:11:32.679Z,9752.00
2019-02-28T09:12:33.345Z,9820.00
2019-02-28T09:13:33.018Z,9860.00
2019-02-28T09:14:33.204Z,9844.00
2019-02-28T09:15:33.390Z,9848.00
2019-02-28T09:16:36.688Z,9696.00
2019-02-28T09:17:33.739Z,9888.00
2019-02-28T09:18:33.917Z,9832.00
2019-02-28T09:19:36.049Z,9880.00
2019-02-28T09:20:34.273Z,9876.00
2019-02-28T09:21:34.457Z,9956.00
2019-02-28T09:22:34.654Z,9880.00
2019-02-28T09:23:37.706Z,9860.00
2019-02-28T09:24:35.011Z,9848.00
2019-02-28T09:25:35.202Z,9836.00
2019-02-28T09:26:35.381Z,10004.00
2019-02-28T09:27:38.901Z,11088.00
2019-02-28T09:28:35.746Z,10848.00
2019-02-28T09:29:35.932Z,10032.00
2019-02-28T09:30:36.109Z,9856.00
2019-02-28T09:31:39.088Z,9816.00
2019-02-28T09:32:36.476Z,9736.00
2019-02-28T09:33:36.642Z,9756.00
2019-02-28T09:34:36.829Z,9796.00
2019-02-28T09:35:36.994Z,10012.00
2019-02-28T09:36:37.196Z,9808.00
2019-02-28T09:37:37.360Z,9848.00
2019-02-28T09:38:37.528Z,9816.00
2019-02-28T09:39:37.723Z,9720.00
2019-02-28T09:40:37.903Z,9732.00
2019-02-28T09:41:40.386Z,9760.00
2019-02-28T09:42:38.286Z,9884.00
2019-02-28T09:43:38.479Z,9788.00
2019-02-28T09:44:38.648Z,9620.00
2019-02-28T09:45:39.871Z,9760.00
2019-02-28T09:46:38.995Z,9760.00
2019-02-28T09:47:39.174Z,9816.00
2019-02-28T09:48:39.359Z,9676.00
2019-02-28T09:49:39.542Z,9696.00
2019-02-28T09:50:39.729Z,9600.00
2019-02-28T09:51:39.899Z,9664.00
2019-02-28T09:52:41.819Z,9672.00
2019-02-28T09:53:40.276Z,9812.00
2019-02-28T09:54:42.045Z,9760.00
2019-02-28T09:55:40.656Z,9584.00
2019-02-28T09:56:41.159Z,9712.00
2019-02-28T09:57:41.003Z,9720.00
2019-02-28T09:58:41.183Z,9692.00
2019-02-28T09:59:41.345Z,9612.00
2019-02-28T10:00:43.227Z,9700.00
2019-02-28T10:01:42.518Z,9688.00
2019-02-28T10:02:43.785Z,9652.00
2019-02-28T10:03:42.100Z,9604.00
2019-02-28T10:04:42.262Z,9532.00
2019-02-28T10:05:43.281Z,9768.00
2019-02-28T10:06:42.633Z,9552.00
2019-02-28T10:07:42.796Z,9704.00
2019-02-28T10:08:42.984Z,9544.00
2019-02-28T10:09:44.254Z,9392.00
2019-02-28T10:10:43.371Z,9392.00
2019-02-28T10:11:43.540Z,9740.00
2019-02-28T10:12:43.719Z,9588.00
2019-02-28T10:13:43.917Z,9564.00
2019-02-28T10:14:44.112Z,9252.00
2019-02-28T10:15:44.286Z,9216.00
2019-02-28T10:16:44.474Z,9216.00
2019-02-28T10:17:44.639Z,9100.00
2019-02-28T10:18:44.841Z,8784.00
2019-02-28T10:19:46.099Z,8924.00
2019-02-28T10:20:45.195Z,9268.00
2019-02-28T10:21:51.641Z,9372.00
2019-02-28T10:22:47.313Z,9348.00
2019-02-28T10:23:45.744Z,9236.00
2019-02-28T10:24:45.926Z,9500.00
2019-02-28T10:25:46.127Z,9348.00
2019-02-28T10:26:48.160Z,9564.00
2019-02-28T10:27:46.485Z,9464.00
2019-02-28T10:28:46.665Z,9724.00
2019-02-28T10:29:46.855Z,9348.00
2019-02-28T10:30:47.233Z,8472.00
2019-02-28T10:31:47.218Z,8284.00
2019-02-28T10:32:47.396Z,8080.00
2019-02-28T10:33:49.478Z,8924.00
2019-02-28T10:34:47.770Z,9172.00
2019-02-28T10:35:47.947Z,9636.00
2019-02-28T10:36:48.897Z,7660.00
2019-02-28T10:37:48.344Z,9288.00
2019-02-28T10:38:48.532Z,9332.00
2019-02-28T10:39:48.716Z,9388.00
2019-02-28T10:40:49.373Z,9476.00
2019-02-28T10:41:49.080Z,9408.00
2019-02-28T10:42:49.550Z,9372.00
2019-02-28T10:43:52.248Z,8916.00
2019-02-28T10:44:49.617Z,8284.00
2019-02-28T10:45:49.799Z,7664.00
2019-02-28T10:46:50.323Z,8128.00
2019-02-28T10:47:50.298Z,9288.00
2019-02-28T10:48:51.088Z,9424.00
2019-02-28T10:49:50.527Z,9344.00
2019-02-28T10:50:50.689Z,8412.00
2019-02-28T10:51:50.882Z,9040.00
2019-02-28T10:52:51.064Z,9076.00
2019-02-28T10:53:51.279Z,8432.00
2019-02-28T10:54:51.450Z,7400.00
2019-02-28T10:55:54.455Z,7316.00
2019-02-28T10:56:51.803Z,8928.00
2019-02-28T10:57:51.992Z,8924.00
2019-02-28T10:58:53.801Z,9060.00
2019-02-28T10:59:55.171Z,8616.00
2019-02-28T11:00:52.535Z,8604.00
2019-02-28T11:01:52.723Z,8500.00
2019-02-28T11:02:53.770Z,8480.00
2019-02-28T11:03:53.091Z,8200.00
2019-02-28T11:04:53.275Z,7960.00
2019-02-28T11:05:54.405Z,7372.00
2019-02-28T11:06:53.639Z,7548.00
2019-02-28T11:07:53.825Z,6596.00
2019-02-28T11:08:54.006Z,6428.00
2019-02-28T11:09:55.650Z,6412.00
2019-02-28T11:10:54.403Z,6604.00
2019-02-28T11:11:54.551Z,7256.00
2019-02-28T11:12:57.131Z,8624.00
2019-02-28T11:13:54.925Z,8148.00
2019-02-28T11:14:55.090Z,7972.00
2019-02-28T11:15:55.274Z,8024.00
2019-02-28T11:16:59.097Z,8508.00
2019-02-28T11:17:55.624Z,7988.00
2019-02-28T11:18:55.811Z,7728.00
2019-02-28T11:19:55.993Z,8308.00
2019-02-28T11:20:58.146Z,9076.00
2019-02-28T11:21:56.367Z,9264.00
2019-02-28T11:22:56.539Z,7992.00
2019-02-28T11:23:56.729Z,7944.00
2019-02-28T11:24:57.269Z,8820.00
2019-02-28T11:25:57.096Z,8740.00
2019-02-28T11:26:57.280Z,8656.00
2019-02-28T11:27:57.545Z,7884.00
2019-02-28T11:29:02.861Z,7804.00
2019-02-28T11:29:57.841Z,6680.00
2019-02-28T11:30:57.997Z,7208.00
2019-02-28T11:31:59.062Z,6584.00
2019-02-28T11:33:03.242Z,7420.00
2019-02-28T11:33:58.545Z,6168.00
2019-02-28T11:34:58.749Z,7252.00
2019-02-28T11:35:59.375Z,6196.00
2019-02-28T11:36:59.082Z,6708.00
2019-02-28T11:37:59.260Z,6136.00
2019-02-28T11:38:59.459Z,6844.00
2019-02-28T11:39:59.621Z,5844.00
2019-02-28T11:40:59.804Z,6584.00
2019-02-28T11:41:59.984Z,6108.00
2019-02-28T11:43:02.810Z,5680.00
2019-02-28T11:44:00.355Z,5908.00
2019-02-28T11:45:00.526Z,6248.00
2019-02-28T11:46:02.952Z,6208.00
2019-02-28T11:47:00.887Z,6684.00
2019-02-28T11:48:01.066Z,5184.00
2019-02-28T11:49:01.257Z,5876.00
2019-02-28T11:50:04.291Z,5708.00
2019-02-28T11:51:01.613Z,8076.00
2019-02-28T11:52:01.791Z,6284.00
2019-02-28T11:53:05.771Z,5868.00
2019-02-28T11:54:02.151Z,9488.00
2019-02-28T11:55:02.332Z,9300.00
2019-02-28T11:56:02.514Z,9588.00
2019-02-28T11:57:03.109Z,9676.00
2019-02-28T11:58:02.886Z,6968.00
2019-02-28T11:59:03.067Z,5168.00
2019-02-28T12:00:03.254Z,4656.00
2019-02-28T12:01:03.437Z,4444.00
2019-02-28T12:02:03.612Z,4980.00
2019-02-28T12:03:05.434Z,8360.00
2019-02-28T12:04:03.981Z,7188.00
2019-02-28T12:05:04.160Z,6028.00
2019-02-28T12:06:04.359Z,4460.00
2019-02-28T12:07:05.011Z,4120.00
2019-02-28T12:08:09.161Z,3960.00
2019-02-28T12:09:04.869Z,4116.00
2019-02-28T12:10:05.086Z,5344.00
2019-02-28T12:11:05.229Z,7244.00
2019-02-28T12:12:07.260Z,4600.00
2019-02-28T12:13:05.592Z,4048.00
2019-02-28T12:14:06.376Z,3560.00
2019-02-28T12:15:06.776Z,3412.00
2019-02-28T12:16:06.034Z,3332.00
2019-02-28T12:17:06.232Z,3260.00
2019-02-28T12:18:06.391Z,3228.00
2019-02-28T12:19:06.591Z,3284.00
2019-02-28T12:20:06.740Z,3284.00
2019-02-28T12:21:06.916Z,3308.00
2019-02-28T12:22:09.206Z,3240.00
2019-02-28T12:23:07.256Z,3200.00
2019-02-28T12:24:07.438Z,3192.00
2019-02-28T12:25:08.455Z,3204.00
2019-02-28T12:26:07.797Z,3240.00
2019-02-28T12:27:07.954Z,3264.00
2019-02-28T12:28:08.132Z,3284.00
2019-02-28T12:29:09.486Z,3332.00
2019-02-28T12:30:08.496Z,3428.00
2019-02-28T12:31:08.671Z,3604.00
2019-02-28T12:32:08.909Z,4224.00
2019-02-28T12:33:09.020Z,4196.00
2019-02-28T12:34:09.190Z,3948.00
2019-02-28T12:35:09.365Z,3892.00
2019-02-28T12:36:11.209Z,3940.00
2019-02-28T12:37:09.742Z,3876.00
2019-02-28T12:38:09.915Z,4072.00
2019-02-28T12:39:10.095Z,4584.00
2019-02-28T12:40:11.138Z,4860.00
2019-02-28T12:41:10.454Z,4772.00
2019-02-28T12:42:10.633Z,4496.00